Freeman, MO (64746)

1:37 PM CST on February 14, 2016 (GMT -0600)
Cass County, Freeman | | Change Station
CLOSE
Current Station
Personal Weather Station
Location: Freeman, MO
Elevation: 961 ft
Nearby Weather Stations

Elev 961 ft 38.59 °N, 94.52 °W | Updated 1 second ago

Clear
Clear
47.8 °F
Feels Like 46 °F
N
4.5
Wind Variable Wind from South
Gusts 7.4 mph

Today
High -- | Low -- °F
--% Chance of Precip.
Yesterday
High -- | Low -- °F
Precip. -- in
Pressure 29.92 in
Visibility 10.0 miles
Clouds Clear
Windchill 46 °F
Dew Point 30 °F
Humidity 49%
Rainfall 0.05 in
Snow Depth Not available.
7:10 AM 5:54 PM
Waxing Crescent, 44% visible
METAR KOJC 141853Z 26009KT 10SM CLR 06/M04 A2989 RMK AO2 SLP130 T00611039
Pressure 29.92 in
Visibility 10.0 miles
Clouds Clear
Windchill 46 °F
Dew Point 30 °F
Humidity 49%
Rainfall 0.05 in
Snow Depth Not available.
7:10 AM 5:54 PM
Waxing Crescent, 44% visible
METAR KOJC 141853Z 26009KT 10SM CLR 06/M04 A2989 RMK AO2 SLP130 T00611039

10-Day Weather Forecast

Almanac

Astronomy

Feb. 14, 2016 Rise Set
Actual Time
Civil Twilight
Nautical Twilight
Astronomical Twilight
Moon
Length of Visible Light
Length of Day
Tomorrow will be .
, % of the Moon is Illuminated

Today's Extremes

State Highs State Lows

Community

WunderPhotos

Upload Photos

1,892,878 photos uploaded!

WunderBlog® & News

Nearby

Air Quality

  Air Quality AQ Index Pollutant
Not available.

Snow Depth

Station Depth Elevation

Earthquake Activity

City Distance Mag. Time & Date
Minimum magnitude displayed is 2.5.

Coastal Water Temperatures

Place Temperature

Stations

Nearby Weather Stations

Station Location Temp. Windchill Dew Point Humidity Wind Precip. Elev Updated Type
                   

Watches & Warnings

There are currently no watches in effect.